Arboga, California
Current Conditions -  °F | °C
As of 5:12 PM on Friday 31 Oct 2014 (Local Time) from KMYV Reporting Station
Light Rain Light Rain  
Wind Chill: 57°   Ceiling: 4400
Heat Index: 57°   Visibility: 2mi
Dew Point: 56°   Wind: 3mph
Humidity: 96%   Direction: 150°SSE
Pressure: 29.77"   Gusts: NA
Location:  39.0904°N, 121.552°W
Report Text: KMYV 010012Z AUTO 15003KT 2SM -RA BR BKN044 OVC055 14/13 A2977 RMK AO2 P0005 T01390133
Loading
Personal Weather Stations






























Interactive Weather Map
Tropical Storm Tracking
New forecast layout! Learn more

10-Day Weather Forecast

Advertisements
Track Severe Weather on mobile